sensor_id;sensor_type;location;lat;lon;timestamp;temperature;humidity
23987;DHT22;12514;52.140;5.602;2022-07-01T00:00:00;16.60;99.90
23987;DHT22;12514;52.140;5.602;2022-07-01T00:02:26;16.70;99.90
23987;DHT22;12514;52.140;5.602;2022-07-01T00:04:51;16.60;99.90
23987;DHT22;12514;52.140;5.602;2022-07-01T00:07:17;16.70;99.90
23987;DHT22;12514;52.140;5.602;2022-07-01T00:09:43;16.60;99.90
23987;DHT22;12514;52.140;5.602;2022-07-01T00:12:09;16.70;99.90
23987;DHT22;12514;52.140;5.602;2022-07-01T00:14:34;16.60;99.90
23987;DHT22;12514;52.140;5.602;2022-07-01T00:20:22;16.60;99.90
23987;DHT22;12514;52.140;5.602;2022-07-01T00:22:47;16.50;99.90
23987;DHT22;12514;52.140;5.602;2022-07-01T00:25:13;16.50;99.90
23987;DHT22;12514;52.140;5.602;2022-07-01T00:27:39;16.50;99.90
23987;DHT22;12514;52.140;5.602;2022-07-01T00:30:07;16.30;99.90
23987;DHT22;12514;52.140;5.602;2022-07-01T00:32:32;16.30;99.90
23987;DHT22;12514;52.140;5.602;2022-07-01T00:34:58;16.50;99.90
23987;DHT22;12514;52.140;5.602;2022-07-01T00:37:25;16.50;99.90
23987;DHT22;12514;52.140;5.602;2022-07-01T00:39:50;16.60;99.90
23987;DHT22;12514;52.140;5.602;2022-07-01T00:42:16;16.50;99.90
23987;DHT22;12514;52.140;5.602;2022-07-01T00:44:41;16.60;99.90
23987;DHT22;12514;52.140;5.602;2022-07-01T00:50:29;16.60;99.90
23987;DHT22;12514;52.140;5.602;2022-07-01T00:52:54;16.60;99.90
23987;DHT22;12514;52.140;5.602;2022-07-01T00:55:20;16.70;99.90
23987;DHT22;12514;52.140;5.602;2022-07-01T00:57:45;16.60;99.90
23987;DHT22;12514;52.140;5.602;2022-07-01T01:00:13;16.60;99.90
23987;DHT22;12514;52.140;5.602;2022-07-01T01:02:40;16.40;99.90
23987;DHT22;12514;52.140;5.602;2022-07-01T01:05:07;16.40;99.90
23987;DHT22;12514;52.140;5.602;2022-07-01T01:07:34;16.30;99.90
23987;DHT22;12514;52.140;5.602;2022-07-01T01:10:00;16.20;99.90
23987;DHT22;12514;52.140;5.602;2022-07-01T01:12:27;16.10;99.90
23987;DHT22;12514;52.140;5.602;2022-07-01T01:14:53;16.20;99.90
23987;DHT22;12514;52.140;5.602;2022-07-01T01:17:19;16.20;99.90
23987;DHT22;12514;52.140;5.602;2022-07-01T01:19:47;16.30;99.90
23987;DHT22;12514;52.140;5.602;2022-07-01T01:22:15;16.10;99.90
23987;DHT22;12514;52.140;5.602;2022-07-01T01:24:42;16.10;99.90
23987;DHT22;12514;52.140;5.602;2022-07-01T01:27:08;16.00;99.90
23987;DHT22;12514;52.140;5.602;2022-07-01T01:29:36;15.80;99.90
23987;DHT22;12514;52.140;5.602;2022-07-01T01:35:23;15.70;99.90
23987;DHT22;12514;52.140;5.602;2022-07-01T01:37:49;15.60;99.90
23987;DHT22;12514;52.140;5.602;2022-07-01T01:40:15;15.60;99.90
23987;DHT22;12514;52.140;5.602;2022-07-01T01:42:42;15.80;99.90
23987;DHT22;12514;52.140;5.602;2022-07-01T01:45:08;15.80;99.90
23987;DHT22;12514;52.140;5.602;2022-07-01T01:47:34;15.60;99.90
23987;DHT22;12514;52.140;5.602;2022-07-01T01:49:59;15.70;99.90
23987;DHT22;12514;52.140;5.602;2022-07-01T01:52:25;15.70;99.90
23987;DHT22;12514;52.140;5.602;2022-07-01T01:54:50;15.80;99.90
23987;DHT22;12514;52.140;5.602;2022-07-01T01:57:16;16.00;99.90
23987;DHT22;12514;52.140;5.602;2022-07-01T01:59:42;16.00;99.90
23987;DHT22;12514;52.140;5.602;2022-07-01T02:05:29;16.10;99.90
23987;DHT22;12514;52.140;5.602;2022-07-01T02:07:55;16.10;99.90
23987;DHT22;12514;52.140;5.602;2022-07-01T02:10:21;16.10;99.90
23987;DHT22;12514;52.140;5.602;2022-07-01T02:12:47;16.20;99.90
23987;DHT22;12514;52.140;5.602;2022-07-01T02:15:12;16.10;99.90
23987;DHT22;12514;52.140;5.602;2022-07-01T02:17:38;16.10;99.90
23987;DHT22;12514;52.140;5.602;2022-07-01T02:20:04;16.10;99.90
23987;DHT22;12514;52.140;5.602;2022-07-01T02:22:30;16.20;99.90
23987;DHT22;12514;52.140;5.602;2022-07-01T02:24:55;16.10;99.90
23987;DHT22;12514;52.140;5.602;2022-07-01T02:27:21;16.00;99.90
23987;DHT22;12514;52.140;5.602;2022-07-01T02:29:47;16.00;99.90
23987;DHT22;12514;52.140;5.602;2022-07-01T02:35:36;15.70;99.90
23987;DHT22;12514;52.140;5.602;2022-07-01T02:38:03;15.80;99.90
23987;DHT22;12514;52.140;5.602;2022-07-01T02:40:29;15.80;99.90
23987;DHT22;12514;52.140;5.602;2022-07-01T02:42:54;15.80;99.90
23987;DHT22;12514;52.140;5.602;2022-07-01T02:45:20;15.80;99.90
23987;DHT22;12514;52.140;5.602;2022-07-01T02:47:46;15.80;99.90
23987;DHT22;12514;52.140;5.602;2022-07-01T02:50:13;15.70;99.90
23987;DHT22;12514;52.140;5.602;2022-07-01T02:52:40;15.60;99.90
23987;DHT22;12514;52.140;5.602;2022-07-01T02:55:09;15.60;99.90
23987;DHT22;12514;52.140;5.602;2022-07-01T02:57:35;15.60;99.90
23987;DHT22;12514;52.140;5.602;2022-07-01T03:00:05;15.40;99.90
23987;DHT22;12514;52.140;5.602;2022-07-01T03:05:54;15.40;99.90
23987;DHT22;12514;52.140;5.602;2022-07-01T03:08:19;15.60;99.90
23987;DHT22;12514;52.140;5.602;2022-07-01T03:10:45;15.40;99.90
23987;DHT22;12514;52.140;5.602;2022-07-01T03:13:10;15.20;99.90
23987;DHT22;12514;52.140;5.602;2022-07-01T03:15:36;15.30;99.90
23987;DHT22;12514;52.140;5.602;2022-07-01T03:18:02;15.20;99.90
23987;DHT22;12514;52.140;5.602;2022-07-01T03:20:28;15.30;99.90
23987;DHT22;12514;52.140;5.602;2022-07-01T03:22:53;15.40;99.90
23987;DHT22;12514;52.140;5.602;2022-07-01T03:25:19;15.30;99.90
23987;DHT22;12514;52.140;5.602;2022-07-01T03:27:45;15.30;99.90
23987;DHT22;12514;52.140;5.602;2022-07-01T03:30:11;15.40;99.90
23987;DHT22;12514;52.140;5.602;2022-07-01T03:35:59;15.30;99.90
23987;DHT22;12514;52.140;5.602;2022-07-01T03:38:25;15.20;99.90
23987;DHT22;12514;52.140;5.602;2022-07-01T03:40:51;15.40;99.90
23987;DHT22;12514;52.140;5.602;2022-07-01T03:43:16;15.90;99.90
23987;DHT22;12514;52.140;5.602;2022-07-01T03:45:42;15.30;99.90
23987;DHT22;12514;52.140;5.602;2022-07-01T03:48:07;15.30;99.90
23987;DHT22;12514;52.140;5.602;2022-07-01T03:50:33;15.20;99.90
23987;DHT22;12514;52.140;5.602;2022-07-01T03:52:59;15.30;99.90
23987;DHT22;12514;52.140;5.602;2022-07-01T03:55:43;15.40;99.90
23987;DHT22;12514;52.140;5.602;2022-07-01T03:58:09;15.40;99.90
23987;DHT22;12514;52.140;5.602;2022-07-01T04:00:35;15.30;99.90
23987;DHT22;12514;52.140;5.602;2022-07-01T04:03:02;15.30;99.90
23987;DHT22;12514;52.140;5.602;2022-07-01T04:05:28;15.30;99.90
23987;DHT22;12514;52.140;5.602;2022-07-01T04:07:54;15.30;99.90
23987;DHT22;12514;52.140;5.602;2022-07-01T04:10:19;15.30;99.90
23987;DHT22;12514;52.140;5.602;2022-07-01T04:12:45;15.40;99.90
23987;DHT22;12514;52.140;5.602;2022-07-01T04:15:11;15.50;99.90
23987;DHT22;12514;52.140;5.602;2022-07-01T04:20:59;15.30;99.90
23987;DHT22;12514;52.140;5.602;2022-07-01T04:23:43;15.40;99.90
23987;DHT22;12514;52.140;5.602;2022-07-01T04:26:09;15.50;99.90
23987;DHT22;12514;52.140;5.602;2022-07-01T04:28:34;15.40;99.90
23987;DHT22;12514;52.140;5.602;2022-07-01T04:31:00;15.40;99.90
23987;DHT22;12514;52.140;5.602;2022-07-01T04:33:26;15.40;99.90
23987;DHT22;12514;52.140;5.602;2022-07-01T04:35:52;15.30;99.90
23987;DHT22;12514;52.140;5.602;2022-07-01T04:38:17;15.20;99.90
23987;DHT22;12514;52.140;5.602;2022-07-01T04:40:43;15.10;99.90
23987;DHT22;12514;52.140;5.602;2022-07-01T04:43:29;15.30;99.90
23987;DHT22;12514;52.140;5.602;2022-07-01T04:45:54;15.30;99.90
23987;DHT22;12514;52.140;5.602;2022-07-01T04:48:20;15.30;99.90
23987;DHT22;12514;52.140;5.602;2022-07-01T04:50:46;15.40;99.90
23987;DHT22;12514;52.140;5.602;2022-07-01T04:53:13;15.50;99.90
23987;DHT22;12514;52.140;5.602;2022-07-01T04:55:38;15.50;99.90
23987;DHT22;12514;52.140;5.602;2022-07-01T04:58:04;15.60;99.90
23987;DHT22;12514;52.140;5.602;2022-07-01T05:00:30;15.60;99.90
23987;DHT22;12514;52.140;5.602;2022-07-01T05:06:18;15.50;99.90
23987;DHT22;12514;52.140;5.602;2022-07-01T05:08:43;15.50;99.90
23987;DHT22;12514;52.140;5.602;2022-07-01T05:11:09;15.60;99.90
23987;DHT22;12514;52.140;5.602;2022-07-01T05:13:35;15.50;99.90
23987;DHT22;12514;52.140;5.602;2022-07-01T05:16:01;15.40;99.90
23987;DHT22;12514;52.140;5.602;2022-07-01T05:18:26;15.50;99.90
23987;DHT22;12514;52.140;5.602;2022-07-01T05:21:10;15.40;99.90
23987;DHT22;12514;52.140;5.602;2022-07-01T05:23:55;15.50;99.90
23987;DHT22;12514;52.140;5.602;2022-07-01T05:26:20;15.50;99.90
23987;DHT22;12514;52.140;5.602;2022-07-01T05:28:46;15.60;99.90
23987;DHT22;12514;52.140;5.602;2022-07-01T05:31:13;15.60;99.90
23987;DHT22;12514;52.140;5.602;2022-07-01T05:33:39;15.70;99.90
23987;DHT22;12514;52.140;5.602;2022-07-01T05:36:05;15.80;99.90
23987;DHT22;12514;52.140;5.602;2022-07-01T05:38:31;15.80;99.90
23987;DHT22;12514;52.140;5.602;2022-07-01T05:40:56;15.80;99.90
23987;DHT22;12514;52.140;5.602;2022-07-01T05:43:22;15.80;99.90
23987;DHT22;12514;52.140;5.602;2022-07-01T05:45:47;15.90;99.90
23987;DHT22;12514;52.140;5.602;2022-07-01T05:51:35;16.00;99.90
23987;DHT22;12514;52.140;5.602;2022-07-01T05:54:00;16.00;99.90
23987;DHT22;12514;52.140;5.602;2022-07-01T05:56:26;16.20;99.90
23987;DHT22;12514;52.140;5.602;2022-07-01T05:58:53;16.20;99.90
23987;DHT22;12514;52.140;5.602;2022-07-01T06:01:19;16.30;99.90
23987;DHT22;12514;52.140;5.602;2022-07-01T06:03:45;16.30;99.90
23987;DHT22;12514;52.140;5.602;2022-07-01T06:06:10;16.40;99.90
23987;DHT22;12514;52.140;5.602;2022-07-01T06:08:36;16.40;99.90
23987;DHT22;12514;52.140;5.602;2022-07-01T06:11:02;16.40;99.90
23987;DHT22;12514;52.140;5.602;2022-07-01T06:13:28;16.50;99.90
23987;DHT22;12514;52.140;5.602;2022-07-01T06:15:55;16.40;99.90
23987;DHT22;12514;52.140;5.602;2022-07-01T06:21:45;16.30;99.90
23987;DHT22;12514;52.140;5.602;2022-07-01T06:24:11;16.30;99.90
23987;DHT22;12514;52.140;5.602;2022-07-01T06:26:36;16.40;99.90
23987;DHT22;12514;52.140;5.602;2022-07-01T06:29:02;16.40;99.90
23987;DHT22;12514;52.140;5.602;2022-07-01T06:31:27;16.50;99.90
23987;DHT22;12514;52.140;5.602;2022-07-01T06:33:53;16.40;99.90
23987;DHT22;12514;52.140;5.602;2022-07-01T06:36:19;16.20;99.90
23987;DHT22;12514;52.140;5.602;2022-07-01T06:38:44;16.30;99.90
23987;DHT22;12514;52.140;5.602;2022-07-01T06:41:10;16.50;99.90
23987;DHT22;12514;52.140;5.602;2022-07-01T06:43:58;16.30;99.90
23987;DHT22;12514;52.140;5.602;2022-07-01T06:46:24;16.50;99.90
23987;DHT22;12514;52.140;5.602;2022-07-01T06:48:50;16.30;99.90
23987;DHT22;12514;52.140;5.602;2022-07-01T06:51:15;16.40;99.90
23987;DHT22;12514;52.140;5.602;2022-07-01T06:53:41;16.50;99.90
23987;DHT22;12514;52.140;5.602;2022-07-01T06:56:07;16.40;99.90
23987;DHT22;12514;52.140;5.602;2022-07-01T06:58:33;16.20;99.90
23987;DHT22;12514;52.140;5.602;2022-07-01T07:00:59;16.30;99.90
23987;DHT22;12514;52.140;5.602;2022-07-01T07:06:46;16.30;99.90
23987;DHT22;12514;52.140;5.602;2022-07-01T07:09:12;16.50;99.90
23987;DHT22;12514;52.140;5.602;2022-07-01T07:11:38;16.60;99.90
23987;DHT22;12514;52.140;5.602;2022-07-01T07:14:03;16.80;99.90
23987;DHT22;12514;52.140;5.602;2022-07-01T07:16:32;16.80;99.90
23987;DHT22;12514;52.140;5.602;2022-07-01T07:18:57;16.90;99.90
23987;DHT22;12514;52.140;5.602;2022-07-01T07:21:23;17.00;99.90
23987;DHT22;12514;52.140;5.602;2022-07-01T07:23:48;16.90;99.90
23987;DHT22;12514;52.140;5.602;2022-07-01T07:26:14;16.90;99.90
23987;DHT22;12514;52.140;5.602;2022-07-01T07:28:40;16.80;99.90
23987;DHT22;12514;52.140;5.602;2022-07-01T07:31:05;16.80;99.90
23987;DHT22;12514;52.140;5.602;2022-07-01T07:36:53;16.90;99.90
23987;DHT22;12514;52.140;5.602;2022-07-01T07:39:18;17.30;99.90
23987;DHT22;12514;52.140;5.602;2022-07-01T07:41:44;17.40;99.90
23987;DHT22;12514;52.140;5.602;2022-07-01T07:44:09;17.70;99.90
23987;DHT22;12514;52.140;5.602;2022-07-01T07:46:35;17.60;99.90
23987;DHT22;12514;52.140;5.602;2022-07-01T07:49:01;17.70;99.90
23987;DHT22;12514;52.140;5.602;2022-07-01T07:51:26;17.50;99.90
23987;DHT22;12514;52.140;5.602;2022-07-01T07:53:52;17.50;99.90
23987;DHT22;12514;52.140;5.602;2022-07-01T07:56:18;17.50;99.90
23987;DHT22;12514;52.140;5.602;2022-07-01T07:58:43;17.50;99.90
23987;DHT22;12514;52.140;5.602;2022-07-01T08:01:09;17.80;99.90
23987;DHT22;12514;52.140;5.602;2022-07-01T08:06:56;17.70;99.90
23987;DHT22;12514;52.140;5.602;2022-07-01T08:09:22;17.80;99.90
23987;DHT22;12514;52.140;5.602;2022-07-01T08:11:48;17.90;99.90
23987;DHT22;12514;52.140;5.602;2022-07-01T08:14:16;17.70;99.90
23987;DHT22;12514;52.140;5.602;2022-07-01T08:16:42;17.60;99.90
23987;DHT22;12514;52.140;5.602;2022-07-01T08:19:07;17.60;99.90
23987;DHT22;12514;52.140;5.602;2022-07-01T08:21:33;17.80;99.90
23987;DHT22;12514;52.140;5.602;2022-07-01T08:23:58;17.80;99.90
23987;DHT22;12514;52.140;5.602;2022-07-01T08:26:24;17.90;99.90
23987;DHT22;12514;52.140;5.602;2022-07-01T08:28:50;17.90;99.90
23987;DHT22;12514;52.140;5.602;2022-07-01T08:31:16;18.00;99.90
23987;DHT22;12514;52.140;5.602;2022-07-01T08:37:04;18.30;99.90
23987;DHT22;12514;52.140;5.602;2022-07-01T08:39:29;18.10;99.90
23987;DHT22;12514;52.140;5.602;2022-07-01T08:41:55;18.20;99.90
23987;DHT22;12514;52.140;5.602;2022-07-01T08:44:21;18.40;99.90
23987;DHT22;12514;52.140;5.602;2022-07-01T08:46:47;18.40;99.90
23987;DHT22;12514;52.140;5.602;2022-07-01T08:49:13;18.50;99.90
23987;DHT22;12514;52.140;5.602;2022-07-01T08:51:39;18.50;99.90
23987;DHT22;12514;52.140;5.602;2022-07-01T08:54:04;18.70;99.90
23987;DHT22;12514;52.140;5.602;2022-07-01T08:56:30;18.90;99.90
23987;DHT22;12514;52.140;5.602;2022-07-01T08:59:09;18.80;99.90
23987;DHT22;12514;52.140;5.602;2022-07-01T09:01:36;19.00;99.90
23987;DHT22;12514;52.140;5.602;2022-07-01T09:07:31;19.20;99.90
23987;DHT22;12514;52.140;5.602;2022-07-01T09:10:18;19.10;99.90
23987;DHT22;12514;52.140;5.602;2022-07-01T09:12:44;19.30;99.90
23987;DHT22;12514;52.140;5.602;2022-07-01T09:15:24;19.20;99.90
23987;DHT22;12514;52.140;5.602;2022-07-01T09:17:52;19.40;99.90
23987;DHT22;12514;52.140;5.602;2022-07-01T09:20:46;19.50;99.90
23987;DHT22;12514;52.140;5.602;2022-07-01T09:23:15;19.60;99.90
23987;DHT22;12514;52.140;5.602;2022-07-01T09:25:43;19.50;99.90
23987;DHT22;12514;52.140;5.602;2022-07-01T09:28:15;19.40;99.90
23987;DHT22;12514;52.140;5.602;2022-07-01T09:30:44;19.70;99.90
23987;DHT22;12514;52.140;5.602;2022-07-01T09:33:21;19.60;99.90
23987;DHT22;12514;52.140;5.602;2022-07-01T09:35:48;19.30;99.90
23987;DHT22;12514;52.140;5.602;2022-07-01T09:38:16;19.40;99.90
23987;DHT22;12514;52.140;5.602;2022-07-01T09:40:47;19.60;99.90
23987;DHT22;12514;52.140;5.602;2022-07-01T09:45:50;19.80;99.90
23987;DHT22;12514;52.140;5.602;2022-07-01T09:48:16;19.80;99.90
23987;DHT22;12514;52.140;5.602;2022-07-01T09:50:41;19.90;99.90
23987;DHT22;12514;52.140;5.602;2022-07-01T09:53:07;20.00;99.90
23987;DHT22;12514;52.140;5.602;2022-07-01T09:55:34;19.80;99.90
23987;DHT22;12514;52.140;5.602;2022-07-01T09:58:00;20.00;99.90
23987;DHT22;12514;52.140;5.602;2022-07-01T10:00:26;20.10;99.90
23987;DHT22;12514;52.140;5.602;2022-07-01T10:02:54;20.30;99.90
23987;DHT22;12514;52.140;5.602;2022-07-01T10:05:21;20.10;99.90
23987;DHT22;12514;52.140;5.602;2022-07-01T10:13:32;20.70;99.90
23987;DHT22;12514;52.140;5.602;2022-07-01T10:15:59;20.80;99.90
23987;DHT22;12514;52.140;5.602;2022-07-01T10:18:27;20.80;99.90
23987;DHT22;12514;52.140;5.602;2022-07-01T10:20:55;20.80;99.90
23987;DHT22;12514;52.140;5.602;2022-07-01T10:23:23;20.70;99.90
23987;DHT22;12514;52.140;5.602;2022-07-01T10:25:50;20.80;99.90
23987;DHT22;12514;52.140;5.602;2022-07-01T10:31:06;20.70;99.90
23987;DHT22;12514;52.140;5.602;2022-07-01T10:33:57;20.80;99.90
23987;DHT22;12514;52.140;5.602;2022-07-01T10:44:22;20.80;99.90
23987;DHT22;12514;52.140;5.602;2022-07-01T10:46:54;20.80;99.90
23987;DHT22;12514;52.140;5.602;2022-07-01T10:52:13;21.10;99.90
23987;DHT22;12514;52.140;5.602;2022-07-01T11:00:27;20.90;99.90
23987;DHT22;12514;52.140;5.602;2022-07-01T11:05:55;21.20;99.90
23987;DHT22;12514;52.140;5.602;2022-07-01T11:08:21;21.30;99.90
23987;DHT22;12514;52.140;5.602;2022-07-01T11:10:54;21.40;99.90
23987;DHT22;12514;52.140;5.602;2022-07-01T11:13:20;21.40;99.90
23987;DHT22;12514;52.140;5.602;2022-07-01T11:15:46;21.50;99.90
23987;DHT22;12514;52.140;5.602;2022-07-01T11:21:34;21.60;99.90
23987;DHT22;12514;52.140;5.602;2022-07-01T11:23:59;21.70;99.90
23987;DHT22;12514;52.140;5.602;2022-07-01T11:26:25;21.80;99.90
23987;DHT22;12514;52.140;5.602;2022-07-01T11:28:51;21.80;99.90
23987;DHT22;12514;52.140;5.602;2022-07-01T11:31:30;21.80;99.90
23987;DHT22;12514;52.140;5.602;2022-07-01T11:37:18;21.90;99.90
23987;DHT22;12514;52.140;5.602;2022-07-01T11:40:07;21.90;99.90
23987;DHT22;12514;52.140;5.602;2022-07-01T11:42:33;22.00;99.90
23987;DHT22;12514;52.140;5.602;2022-07-01T11:44:59;22.10;99.90
23987;DHT22;12514;52.140;5.602;2022-07-01T11:47:26;22.20;99.90
23987;DHT22;12514;52.140;5.602;2022-07-01T11:53:13;22.20;99.90
23987;DHT22;12514;52.140;5.602;2022-07-01T11:55:45;22.20;99.90
23987;DHT22;12514;52.140;5.602;2022-07-01T11:58:10;22.00;99.90
23987;DHT22;12514;52.140;5.602;2022-07-01T12:00:36;21.60;99.90
23987;DHT22;12514;52.140;5.602;2022-07-01T12:03:03;21.60;99.90
23987;DHT22;12514;52.140;5.602;2022-07-01T12:05:28;21.40;99.90
23987;DHT22;12514;52.140;5.602;2022-07-01T12:07:54;21.80;99.90
23987;DHT22;12514;52.140;5.602;2022-07-01T12:10:24;21.80;99.90
23987;DHT22;12514;52.140;5.602;2022-07-01T12:12:50;21.80;99.90
23987;DHT22;12514;52.140;5.602;2022-07-01T12:15:15;22.00;99.90
23987;DHT22;12514;52.140;5.602;2022-07-01T12:17:41;22.30;99.90
23987;DHT22;12514;52.140;5.602;2022-07-01T12:23:29;22.30;99.90
23987;DHT22;12514;52.140;5.602;2022-07-01T12:25:55;22.40;99.90
23987;DHT22;12514;52.140;5.602;2022-07-01T12:31:02;22.30;99.90
23987;DHT22;12514;52.140;5.602;2022-07-01T12:33:28;22.30;99.90
23987;DHT22;12514;52.140;5.602;2022-07-01T12:35:54;22.40;99.90
23987;DHT22;12514;52.140;5.602;2022-07-01T12:38:20;22.40;99.90
23987;DHT22;12514;52.140;5.602;2022-07-01T12:40:46;22.40;99.90
23987;DHT22;12514;52.140;5.602;2022-07-01T12:43:31;22.50;99.90
23987;DHT22;12514;52.140;5.602;2022-07-01T12:46:00;22.60;99.90
23987;DHT22;12514;52.140;5.602;2022-07-01T12:48:26;22.60;99.90
23987;DHT22;12514;52.140;5.602;2022-07-01T12:50:55;22.60;99.90
23987;DHT22;12514;52.140;5.602;2022-07-01T12:53:22;22.60;99.90
23987;DHT22;12514;52.140;5.602;2022-07-01T12:55:56;22.50;99.90
23987;DHT22;12514;52.140;5.602;2022-07-01T12:58:27;22.40;99.90
23987;DHT22;12514;52.140;5.602;2022-07-01T13:00:54;22.10;99.90
23987;DHT22;12514;52.140;5.602;2022-07-01T13:03:22;21.90;99.90
23987;DHT22;12514;52.140;5.602;2022-07-01T13:05:49;22.00;99.90
23987;DHT22;12514;52.140;5.602;2022-07-01T13:08:16;22.20;99.90
23987;DHT22;12514;52.140;5.602;2022-07-01T13:10:43;22.40;99.90
23987;DHT22;12514;52.140;5.602;2022-07-01T13:13:09;22.60;99.90
23987;DHT22;12514;52.140;5.602;2022-07-01T13:15:35;22.90;99.90
23987;DHT22;12514;52.140;5.602;2022-07-01T13:18:02;23.20;99.90
23987;DHT22;12514;52.140;5.602;2022-07-01T13:23:49;22.70;99.90
23987;DHT22;12514;52.140;5.602;2022-07-01T13:26:15;22.60;99.90
23987;DHT22;12514;52.140;5.602;2022-07-01T13:28:40;22.30;99.90
23987;DHT22;12514;52.140;5.602;2022-07-01T13:31:06;22.00;99.90
23987;DHT22;12514;52.140;5.602;2022-07-01T13:39:56;21.50;99.90
23987;DHT22;12514;52.140;5.602;2022-07-01T13:42:22;21.40;99.90
23987;DHT22;12514;52.140;5.602;2022-07-01T13:44:48;21.20;99.90
23987;DHT22;12514;52.140;5.602;2022-07-01T13:47:15;20.90;99.90
23987;DHT22;12514;52.140;5.602;2022-07-01T13:49:41;20.70;99.90
23987;DHT22;12514;52.140;5.602;2022-07-01T13:52:11;20.60;99.90
23987;DHT22;12514;52.140;5.602;2022-07-01T13:54:37;20.70;99.90
23987;DHT22;12514;52.140;5.602;2022-07-01T13:57:04;20.90;99.90
23987;DHT22;12514;52.140;5.602;2022-07-01T13:59:29;21.00;99.90
23987;DHT22;12514;52.140;5.602;2022-07-01T14:01:55;20.90;99.90
23987;DHT22;12514;52.140;5.602;2022-07-01T14:04:22;21.00;99.90
23987;DHT22;12514;52.140;5.602;2022-07-01T14:06:47;21.00;99.90
23987;DHT22;12514;52.140;5.602;2022-07-01T14:09:13;20.80;99.90
23987;DHT22;12514;52.140;5.602;2022-07-01T14:11:39;20.80;99.90
23987;DHT22;12514;52.140;5.602;2022-07-01T14:14:05;21.20;99.90
23987;DHT22;12514;52.140;5.602;2022-07-01T14:16:30;21.50;99.90
23987;DHT22;12514;52.140;5.602;2022-07-01T14:18:57;21.80;99.90
23987;DHT22;12514;52.140;5.602;2022-07-01T14:21:23;22.00;99.90
23987;DHT22;12514;52.140;5.602;2022-07-01T14:23:49;21.90;99.90
23987;DHT22;12514;52.140;5.602;2022-07-01T14:26:15;22.10;99.90
23987;DHT22;12514;52.140;5.602;2022-07-01T14:28:41;22.00;99.90
23987;DHT22;12514;52.140;5.602;2022-07-01T14:31:07;21.90;99.90
23987;DHT22;12514;52.140;5.602;2022-07-01T14:33:33;22.10;99.90
23987;DHT22;12514;52.140;5.602;2022-07-01T14:39:20;21.90;99.90
23987;DHT22;12514;52.140;5.602;2022-07-01T14:41:52;21.50;99.90
23987;DHT22;12514;52.140;5.602;2022-07-01T14:44:20;21.20;99.90
23987;DHT22;12514;52.140;5.602;2022-07-01T14:46:46;21.30;99.90
23987;DHT22;12514;52.140;5.602;2022-07-01T14:49:12;21.40;99.90
23987;DHT22;12514;52.140;5.602;2022-07-01T14:51:39;21.50;99.90
23987;DHT22;12514;52.140;5.602;2022-07-01T14:54:05;21.30;99.90
23987;DHT22;12514;52.140;5.602;2022-07-01T14:56:30;21.20;99.90
23987;DHT22;12514;52.140;5.602;2022-07-01T14:58:56;21.30;99.90
23987;DHT22;12514;52.140;5.602;2022-07-01T15:01:22;21.60;99.90
23987;DHT22;12514;52.140;5.602;2022-07-01T15:03:47;21.80;99.90
23987;DHT22;12514;52.140;5.602;2022-07-01T15:09:35;21.70;99.90
23987;DHT22;12514;52.140;5.602;2022-07-01T15:12:01;21.50;99.90
23987;DHT22;12514;52.140;5.602;2022-07-01T15:14:26;21.20;99.90
23987;DHT22;12514;52.140;5.602;2022-07-01T15:16:52;21.00;99.90
23987;DHT22;12514;52.140;5.602;2022-07-01T15:25:43;20.70;99.90
23987;DHT22;12514;52.140;5.602;2022-07-01T15:28:09;20.70;99.90
23987;DHT22;12514;52.140;5.602;2022-07-01T15:30:35;20.60;99.90
23987;DHT22;12514;52.140;5.602;2022-07-01T15:33:01;20.70;99.90
23987;DHT22;12514;52.140;5.602;2022-07-01T15:35:27;21.00;99.90
23987;DHT22;12514;52.140;5.602;2022-07-01T15:37:52;21.10;99.90
23987;DHT22;12514;52.140;5.602;2022-07-01T15:40:18;21.20;99.90
23987;DHT22;12514;52.140;5.602;2022-07-01T15:42:43;21.20;99.90
23987;DHT22;12514;52.140;5.602;2022-07-01T15:45:09;21.30;99.90
23987;DHT22;12514;52.140;5.602;2022-07-01T15:47:35;21.30;99.90
23987;DHT22;12514;52.140;5.602;2022-07-01T15:50:19;21.30;99.90
23987;DHT22;12514;52.140;5.602;2022-07-01T15:52:46;21.60;99.90
23987;DHT22;12514;52.140;5.602;2022-07-01T15:55:13;21.80;99.90
23987;DHT22;12514;52.140;5.602;2022-07-01T15:57:39;21.80;99.90
23987;DHT22;12514;52.140;5.602;2022-07-01T16:00:06;21.60;99.90
23987;DHT22;12514;52.140;5.602;2022-07-01T16:02:32;21.50;99.90
23987;DHT22;12514;52.140;5.602;2022-07-01T16:04:58;21.50;99.90
23987;DHT22;12514;52.140;5.602;2022-07-01T16:07:25;21.50;99.90
23987;DHT22;12514;52.140;5.602;2022-07-01T16:10:02;21.30;99.90
23987;DHT22;12514;52.140;5.602;2022-07-01T16:12:29;21.40;99.90
23987;DHT22;12514;52.140;5.602;2022-07-01T16:14:58;21.70;99.90
23987;DHT22;12514;52.140;5.602;2022-07-01T16:17:27;22.00;99.90
23987;DHT22;12514;52.140;5.602;2022-07-01T16:19:55;22.00;99.90
23987;DHT22;12514;52.140;5.602;2022-07-01T16:25:50;22.00;99.90
23987;DHT22;12514;52.140;5.602;2022-07-01T16:28:17;22.20;99.90
23987;DHT22;12514;52.140;5.602;2022-07-01T16:30:43;22.00;99.90
23987;DHT22;12514;52.140;5.602;2022-07-01T16:33:09;21.80;99.90
23987;DHT22;12514;52.140;5.602;2022-07-01T16:35:47;21.70;99.90
23987;DHT22;12514;52.140;5.602;2022-07-01T16:38:17;21.90;99.90
23987;DHT22;12514;52.140;5.602;2022-07-01T16:41:47;22.40;99.90
23987;DHT22;12514;52.140;5.602;2022-07-01T16:43:47;22.80;99.90
23987;DHT22;12514;52.140;5.602;2022-07-01T16:46:17;22.50;99.90
23987;DHT22;12514;52.140;5.602;2022-07-01T16:48:48;22.40;99.90
23987;DHT22;12514;52.140;5.602;2022-07-01T16:51:18;22.30;99.90
23987;DHT22;12514;52.140;5.602;2022-07-01T16:53:46;22.10;99.90
23987;DHT22;12514;52.140;5.602;2022-07-01T16:56:17;22.00;99.90
23987;DHT22;12514;52.140;5.602;2022-07-01T16:59:00;21.80;99.90
23987;DHT22;12514;52.140;5.602;2022-07-01T17:01:30;21.60;99.90
23987;DHT22;12514;52.140;5.602;2022-07-01T17:03:57;21.40;99.90
23987;DHT22;12514;52.140;5.602;2022-07-01T17:06:24;21.40;99.90
23987;DHT22;12514;52.140;5.602;2022-07-01T17:08:52;21.20;99.90
23987;DHT22;12514;52.140;5.602;2022-07-01T17:11:18;21.20;99.90
23987;DHT22;12514;52.140;5.602;2022-07-01T17:13:48;21.30;99.90
23987;DHT22;12514;52.140;5.602;2022-07-01T17:16:15;21.30;99.90
23987;DHT22;12514;52.140;5.602;2022-07-01T17:18:45;21.40;99.90
23987;DHT22;12514;52.140;5.602;2022-07-01T17:21:13;21.60;99.90
23987;DHT22;12514;52.140;5.602;2022-07-01T17:23:51;21.80;99.90
23987;DHT22;12514;52.140;5.602;2022-07-01T17:26:20;22.30;99.90
23987;DHT22;12514;52.140;5.602;2022-07-01T17:29:02;22.20;99.90
23987;DHT22;12514;52.140;5.602;2022-07-01T17:31:37;21.90;99.90
23987;DHT22;12514;52.140;5.602;2022-07-01T17:34:04;21.80;99.90
23987;DHT22;12514;52.140;5.602;2022-07-01T17:36:34;21.90;99.90